createdAt,value
2022-10-05T00:00:55.706Z,17.70
2022-10-05T00:03:37.407Z,18.50
2022-10-05T00:06:05.944Z,20.20
2022-10-05T00:08:34.762Z,14.90
2022-10-05T00:11:02.802Z,18.00
2022-10-05T00:13:31.284Z,16.20
2022-10-05T00:16:05.021Z,17.90
2022-10-05T00:18:32.757Z,15.70
2022-10-05T00:21:00.516Z,14.90
2022-10-05T00:23:31.962Z,14.70
2022-10-05T00:26:06.814Z,16.80
2022-10-05T00:28:34.893Z,14.70
2022-10-05T00:31:02.873Z,19.20
2022-10-05T00:33:30.802Z,17.30
2022-10-05T00:35:58.578Z,22.20
2022-10-05T00:38:28.760Z,18.40
2022-10-05T00:41:09.968Z,17.10
2022-10-05T00:43:57.098Z,17.00
2022-10-05T00:48:53.456Z,18.10
2022-10-05T00:51:26.417Z,19.30
2022-10-05T00:54:17.479Z,19.30
2022-10-05T00:56:49.853Z,20.60
2022-10-05T00:59:29.534Z,16.80
2022-10-05T01:02:09.818Z,16.00
2022-10-05T01:04:49.790Z,17.90
2022-10-05T01:07:23.649Z,18.20
2022-10-05T01:09:58.923Z,16.70
2022-10-05T01:12:40.183Z,19.60
2022-10-05T01:15:11.619Z,17.20
2022-10-05T01:17:41.568Z,17.00
2022-10-05T01:20:20.263Z,17.20
2022-10-05T01:22:56.234Z,18.30
2022-10-05T01:25:43.649Z,18.10
2022-10-05T01:30:48.169Z,16.20
2022-10-05T01:33:36.319Z,18.60
2022-10-05T01:36:12.679Z,20.20
2022-10-05T01:38:43.362Z,16.90
2022-10-05T01:41:20.290Z,18.70
2022-10-05T01:44:00.055Z,18.70
2022-10-05T01:46:39.785Z,16.80
2022-10-05T01:49:16.970Z,19.20
2022-10-05T01:51:50.797Z,18.30
2022-10-05T01:54:30.616Z,19.90
2022-10-05T01:57:17.843Z,17.50
2022-10-05T01:59:48.780Z,19.60
2022-10-05T02:02:17.821Z,21.70
2022-10-05T02:05:02.015Z,18.20
2022-10-05T02:07:34.395Z,17.50
2022-10-05T02:10:04.885Z,18.20
2022-10-05T02:12:38.517Z,17.40
2022-10-05T02:15:13.976Z,16.60
2022-10-05T02:17:45.734Z,20.30
2022-10-05T02:20:17.274Z,18.10
2022-10-05T02:22:47.164Z,19.80
2022-10-05T02:25:17.362Z,18.90
2022-10-05T02:27:50.103Z,16.70
2022-10-05T02:30:19.289Z,19.20
2022-10-05T02:32:54.774Z,17.40
2022-10-05T02:35:22.884Z,18.80
2022-10-05T02:38:08.765Z,19.70
2022-10-05T02:41:00.860Z,17.20
2022-10-05T02:43:32.268Z,16.50
2022-10-05T02:46:03.109Z,16.20
2022-10-05T02:48:34.174Z,16.80
2022-10-05T02:51:14.722Z,19.20
2022-10-05T02:53:50.664Z,17.00
2022-10-05T02:56:37.080Z,19.00
2022-10-05T02:59:07.440Z,18.90
2022-10-05T03:01:39.959Z,17.00
2022-10-05T03:04:13.767Z,17.00
2022-10-05T03:06:55.543Z,17.60
2022-10-05T03:09:26.199Z,18.60
2022-10-05T03:11:53.785Z,23.30
2022-10-05T03:14:40.930Z,20.50
2022-10-05T03:17:22.570Z,22.00
2022-10-05T03:20:06.300Z,23.80
2022-10-05T03:22:39.899Z,20.70
2022-10-05T03:25:26.705Z,21.20
2022-10-05T03:28:05.636Z,17.00
2022-10-05T03:30:38.662Z,17.40
2022-10-05T03:33:17.157Z,21.40
2022-10-05T03:35:49.246Z,15.50
2022-10-05T03:38:23.012Z,15.50
2022-10-05T03:40:56.244Z,15.90
2022-10-05T03:43:47.403Z,13.80
2022-10-05T03:46:30.563Z,16.20
2022-10-05T03:49:01.448Z,15.20
2022-10-05T03:51:36.092Z,15.60
2022-10-05T03:54:12.049Z,15.30
2022-10-05T03:56:50.786Z,15.00
2022-10-05T03:59:21.552Z,15.30
2022-10-05T04:01:55.481Z,14.20
2022-10-05T04:04:26.238Z,14.50
2022-10-05T04:06:55.340Z,15.60
2022-10-05T04:09:26.792Z,12.40
2022-10-05T04:12:12.882Z,16.50
2022-10-05T04:14:52.403Z,13.80
2022-10-05T04:17:39.133Z,14.00
2022-10-05T04:20:09.663Z,17.20
2022-10-05T04:22:39.369Z,17.80
2022-10-05T04:25:12.953Z,14.90
2022-10-05T04:27:44.727Z,14.50
2022-10-05T04:30:14.855Z,13.90
2022-10-05T04:32:43.993Z,13.30
2022-10-05T04:35:11.857Z,14.30
2022-10-05T04:37:47.052Z,15.80
2022-10-05T04:40:32.906Z,13.20
2022-10-05T04:43:13.504Z,14.80
2022-10-05T04:45:56.619Z,10.80
2022-10-05T04:48:30.360Z,15.40
2022-10-05T04:51:16.829Z,13.80
2022-10-05T04:53:54.242Z,15.60
2022-10-05T04:56:27.993Z,15.90
2022-10-05T04:59:02.036Z,14.20
2022-10-05T05:01:32.763Z,14.10
2022-10-05T05:04:19.376Z,13.50
2022-10-05T05:07:06.384Z,16.70
2022-10-05T05:09:51.452Z,15.00
2022-10-05T05:12:22.506Z,16.90
2022-10-05T05:14:56.244Z,20.00
2022-10-05T05:17:33.073Z,17.30
2022-10-05T05:20:06.793Z,17.00
2022-10-05T05:22:37.241Z,17.00
2022-10-05T05:25:17.569Z,16.10
2022-10-05T05:27:45.929Z,14.10
2022-10-05T05:30:17.440Z,14.70
2022-10-05T05:32:54.733Z,14.70
2022-10-05T05:35:42.002Z,14.50
2022-10-05T05:38:22.259Z,13.80
2022-10-05T05:41:09.875Z,18.20
2022-10-05T05:43:56.395Z,76.80
2022-10-05T05:46:38.883Z,48.50
2022-10-05T05:49:16.286Z,55.80
2022-10-05T05:51:48.451Z,62.60
2022-10-05T05:54:16.405Z,63.60
2022-10-05T05:56:48.169Z,64.10
2022-10-05T05:59:20.657Z,50.00
2022-10-05T06:02:10.456Z,40.40
2022-10-05T06:04:38.808Z,32.90
2022-10-05T06:07:07.590Z,28.20
2022-10-05T06:09:38.252Z,24.70
2022-10-05T06:12:06.098Z,21.60
2022-10-05T06:14:43.071Z,20.60
2022-10-05T06:17:10.694Z,19.70
2022-10-05T06:19:40.433Z,17.00
2022-10-05T06:22:14.276Z,15.00
2022-10-05T06:24:46.437Z,18.60
2022-10-05T06:27:27.807Z,17.00
2022-10-05T06:30:04.882Z,15.30
2022-10-05T06:32:51.691Z,12.90
2022-10-05T06:35:26.982Z,13.60
2022-10-05T06:38:01.061Z,13.30
2022-10-05T06:40:41.198Z,12.50
2022-10-05T06:43:22.582Z,14.10
2022-10-05T06:45:53.755Z,12.30
2022-10-05T06:48:21.690Z,14.80
2022-10-05T06:51:12.688Z,11.50
2022-10-05T06:53:45.590Z,12.30
2022-10-05T06:56:17.961Z,13.00
2022-10-05T06:58:51.775Z,12.10
2022-10-05T07:01:33.297Z,10.50
2022-10-05T07:04:03.980Z,10.80
2022-10-05T07:06:49.936Z,11.40
2022-10-05T07:09:29.506Z,12.00
2022-10-05T07:12:05.464Z,11.50
2022-10-05T07:14:54.219Z,12.40
2022-10-05T07:17:22.390Z,10.70
2022-10-05T07:20:08.916Z,13.40
2022-10-05T07:22:45.603Z,12.50
2022-10-05T07:25:19.381Z,11.20
2022-10-05T07:27:59.980Z,11.40
2022-10-05T07:30:28.922Z,11.00
2022-10-05T07:33:00.487Z,11.00
2022-10-05T07:36:16.168Z,11.10
2022-10-05T07:39:02.369Z,11.20
2022-10-05T07:41:40.399Z,11.40
2022-10-05T07:44:14.510Z,11.10
2022-10-05T07:46:54.838Z,9.90
2022-10-05T07:49:28.950Z,10.90
2022-10-05T07:52:01.717Z,10.20
2022-10-05T07:54:30.797Z,11.40
2022-10-05T07:57:19.587Z,12.60
2022-10-05T07:59:58.404Z,13.10
2022-10-05T08:02:42.774Z,10.70
2022-10-05T08:05:12.169Z,9.80
2022-10-05T08:07:40.448Z,13.40
2022-10-05T08:10:29.394Z,8.10
2022-10-05T08:12:57.773Z,10.30
2022-10-05T08:15:43.283Z,10.20
2022-10-05T08:18:38.898Z,10.60
2022-10-05T08:21:12.108Z,7.40
2022-10-05T08:23:47.058Z,8.30
2022-10-05T08:26:22.742Z,8.10
2022-10-05T08:28:57.401Z,9.10
2022-10-05T08:31:27.423Z,9.60
2022-10-05T08:33:55.559Z,8.10
2022-10-05T08:36:42.160Z,6.20
2022-10-05T08:39:15.044Z,8.20
2022-10-05T08:41:42.688Z,8.40
2022-10-05T08:44:13.443Z,7.20
2022-10-05T08:47:05.616Z,7.20
2022-10-05T08:49:39.380Z,6.20
2022-10-05T08:52:06.980Z,8.40
2022-10-05T08:54:38.068Z,5.80
2022-10-05T08:57:25.359Z,6.50
2022-10-05T09:02:29.084Z,6.00
2022-10-05T09:05:09.481Z,8.20
2022-10-05T09:07:37.243Z,6.80
2022-10-05T09:10:13.750Z,6.20
2022-10-05T09:13:09.390Z,5.70
2022-10-05T09:15:40.295Z,8.40
2022-10-05T09:18:14.072Z,5.70
2022-10-05T09:20:41.648Z,5.00
2022-10-05T09:23:15.332Z,5.80
2022-10-05T09:26:03.861Z,7.30
2022-10-05T09:28:38.038Z,8.30
2022-10-05T09:31:34.001Z,6.60
2022-10-05T09:34:01.791Z,7.30
2022-10-05T09:36:59.621Z,7.00
2022-10-05T09:39:35.098Z,6.40
2022-10-05T09:42:18.119Z,6.20
2022-10-05T09:44:51.960Z,7.30
2022-10-05T09:47:38.319Z,5.50
2022-10-05T09:50:12.033Z,7.30
2022-10-05T09:52:40.121Z,5.90
2022-10-05T09:55:27.017Z,8.20
2022-10-05T09:58:14.548Z,5.60
2022-10-05T10:00:55.580Z,5.30
2022-10-05T10:03:50.792Z,5.30
2022-10-05T10:06:33.837Z,7.20
2022-10-05T10:09:07.647Z,5.90
2022-10-05T10:11:35.248Z,6.30
2022-10-05T10:14:03.380Z,5.70
2022-10-05T10:16:37.082Z,5.20
2022-10-05T10:19:04.750Z,4.20
2022-10-05T10:21:33.429Z,4.60
2022-10-05T10:24:04.215Z,6.60
2022-10-05T10:26:50.976Z,7.00
2022-10-05T10:29:37.781Z,6.30
2022-10-05T10:32:23.597Z,6.20
2022-10-05T10:34:53.959Z,6.70
2022-10-05T10:37:30.852Z,6.30
2022-10-05T10:39:58.542Z,5.70
2022-10-05T10:42:32.439Z,8.50
2022-10-05T10:45:06.552Z,4.90
2022-10-05T10:47:40.780Z,5.60
2022-10-05T10:50:24.405Z,4.50
2022-10-05T10:53:10.084Z,7.00
2022-10-05T10:55:42.633Z,5.30
2022-10-05T11:01:18.417Z,5.70
2022-10-05T11:06:28.639Z,5.40
2022-10-05T11:09:10.096Z,5.60
2022-10-05T11:11:41.259Z,7.00
2022-10-05T11:14:15.243Z,9.20
2022-10-05T11:16:49.284Z,8.20
2022-10-05T11:19:17.201Z,5.80
2022-10-05T11:21:45.043Z,5.20
2022-10-05T11:24:28.159Z,6.70
2022-10-05T11:27:03.549Z,5.70
2022-10-05T11:29:31.218Z,6.70
2022-10-05T11:31:58.864Z,4.80
2022-10-05T11:34:29.416Z,4.90
2022-10-05T11:37:11.252Z,4.70
2022-10-05T11:39:41.809Z,9.00
2022-10-05T11:42:28.533Z,6.90
2022-10-05T11:44:57.614Z,5.50
2022-10-05T11:47:31.022Z,4.50
2022-10-05T11:50:06.776Z,5.90
2022-10-05T11:52:34.641Z,5.80
2022-10-05T11:55:21.040Z,6.10
2022-10-05T11:57:51.979Z,5.70
2022-10-05T12:00:19.741Z,5.10
2022-10-05T12:03:07.249Z,4.90
2022-10-05T12:05:43.068Z,3.60
2022-10-05T12:08:26.040Z,3.80
2022-10-05T12:11:00.051Z,4.60
2022-10-05T12:13:43.088Z,4.20
2022-10-05T12:16:10.856Z,2.70
2022-10-05T12:18:45.697Z,4.20
2022-10-05T12:21:28.298Z,4.40
2022-10-05T12:24:02.392Z,3.70
2022-10-05T12:26:36.904Z,3.80
2022-10-05T12:29:23.414Z,6.20
2022-10-05T12:32:11.600Z,5.10
2022-10-05T12:34:42.250Z,4.80
2022-10-05T12:37:13.164Z,3.90
2022-10-05T12:39:40.771Z,3.90
2022-10-05T12:42:27.436Z,4.90
2022-10-05T12:47:36.459Z,5.50
2022-10-05T12:50:20.687Z,2.50
2022-10-05T12:53:07.277Z,4.00
2022-10-05T12:55:46.523Z,4.00
2022-10-05T12:58:17.406Z,4.60
2022-10-05T13:01:06.901Z,7.00
2022-10-05T13:03:38.330Z,8.40
2022-10-05T13:06:27.840Z,3.30
2022-10-05T13:09:06.614Z,5.30
2022-10-05T13:11:35.296Z,2.90
2022-10-05T13:14:03.332Z,5.10
2022-10-05T13:16:40.840Z,3.20
2022-10-05T13:19:08.686Z,4.10
2022-10-05T13:21:40.884Z,3.60
2022-10-05T13:24:15.287Z,5.10
2022-10-05T13:26:46.272Z,3.50
2022-10-05T13:29:43.916Z,4.20
2022-10-05T13:32:17.868Z,3.60
2022-10-05T13:35:10.602Z,4.40
2022-10-05T13:37:43.368Z,3.90
2022-10-05T13:40:29.926Z,3.80
2022-10-05T13:43:11.187Z,3.30
2022-10-05T13:45:46.502Z,5.00
2022-10-05T13:48:15.024Z,4.50
2022-10-05T13:50:50.165Z,5.00
2022-10-05T13:53:28.784Z,6.50
2022-10-05T13:56:00.915Z,2.40
2022-10-05T13:58:38.137Z,3.20
2022-10-05T14:01:16.141Z,3.40
2022-10-05T14:04:04.174Z,3.00
2022-10-05T14:06:33.362Z,4.80
2022-10-05T14:09:01.341Z,3.30
2022-10-05T14:11:33.712Z,3.50
2022-10-05T14:14:10.805Z,2.80
2022-10-05T14:16:44.895Z,2.00
2022-10-05T14:19:20.350Z,4.00
2022-10-05T14:21:58.784Z,4.30
2022-10-05T14:24:46.868Z,4.00
2022-10-05T14:27:24.384Z,4.40
2022-10-05T14:29:58.365Z,3.30
2022-10-05T14:32:27.608Z,4.80
2022-10-05T14:34:56.396Z,5.20
2022-10-05T14:37:26.216Z,6.30
2022-10-05T14:39:57.914Z,3.20
2022-10-05T14:42:28.563Z,3.30
2022-10-05T14:45:16.437Z,4.60
2022-10-05T14:47:53.264Z,3.90
2022-10-05T14:50:26.104Z,4.00
2022-10-05T14:53:03.649Z,3.40
2022-10-05T14:55:46.492Z,2.40
2022-10-05T14:58:32.985Z,3.60
2022-10-05T15:01:13.763Z,2.80
2022-10-05T15:03:41.740Z,3.40
2022-10-05T15:06:16.112Z,3.60
2022-10-05T15:09:17.005Z,4.30
2022-10-05T15:11:53.664Z,4.60
2022-10-05T15:14:32.219Z,3.40
2022-10-05T15:17:05.385Z,2.80
2022-10-05T15:19:42.665Z,4.60
2022-10-05T15:22:20.273Z,3.40
2022-10-05T15:24:48.527Z,2.20
2022-10-05T15:27:32.538Z,4.00
2022-10-05T15:30:04.663Z,3.00
2022-10-05T15:32:42.296Z,2.70
2022-10-05T15:35:16.009Z,4.70
2022-10-05T15:37:46.735Z,2.70
2022-10-05T15:40:18.334Z,3.20
2022-10-05T15:42:46.143Z,3.10
2022-10-05T15:45:23.578Z,4.30
2022-10-05T15:48:03.488Z,3.50
2022-10-05T15:50:35.390Z,3.50
2022-10-05T15:53:16.734Z,2.80
2022-10-05T15:56:03.856Z,1.80
2022-10-05T15:58:44.921Z,2.80
2022-10-05T16:01:13.393Z,3.50
2022-10-05T16:03:41.104Z,4.40
2022-10-05T16:06:46.856Z,4.20
2022-10-05T16:09:25.468Z,5.00
2022-10-05T16:12:03.599Z,4.50
2022-10-05T16:14:42.096Z,4.40
2022-10-05T16:17:29.148Z,3.70
2022-10-05T16:20:12.645Z,3.20
2022-10-05T16:22:47.063Z,4.40
2022-10-05T16:25:14.834Z,4.80
2022-10-05T16:27:48.226Z,5.50
2022-10-05T16:30:23.978Z,5.70
2022-10-05T16:32:54.814Z,4.10
2022-10-05T16:35:25.051Z,5.60
2022-10-05T16:38:02.733Z,4.00
2022-10-05T16:40:34.563Z,6.10
2022-10-05T16:43:23.249Z,4.50
2022-10-05T16:46:10.462Z,6.00
2022-10-05T16:48:59.113Z,7.00
2022-10-05T16:51:45.947Z,4.40
2022-10-05T16:54:26.388Z,5.50
2022-10-05T16:56:57.424Z,4.40
2022-10-05T16:59:40.652Z,5.00
2022-10-05T17:02:27.273Z,5.50
2022-10-05T17:04:58.150Z,5.20
2022-10-05T17:07:28.927Z,6.90
2022-10-05T17:10:15.242Z,7.50
2022-10-05T17:12:46.265Z,9.60
2022-10-05T17:15:29.926Z,6.20
2022-10-05T17:18:07.590Z,6.40
2022-10-05T17:20:43.257Z,6.80
2022-10-05T17:23:18.416Z,7.00
2022-10-05T17:25:53.009Z,15.40
2022-10-05T17:28:42.022Z,26.90
2022-10-05T17:31:16.287Z,19.10
2022-10-05T17:34:05.284Z,12.00
2022-10-05T17:36:50.943Z,10.20
2022-10-05T17:39:22.792Z,10.10
2022-10-05T17:41:51.280Z,7.80
2022-10-05T17:44:21.001Z,6.30
2022-10-05T17:46:50.746Z,6.80
2022-10-05T17:49:23.676Z,6.80
2022-10-05T17:52:10.278Z,6.20
2022-10-05T17:55:02.929Z,8.00
2022-10-05T17:57:31.926Z,8.30
2022-10-05T18:00:02.063Z,6.20
2022-10-05T18:02:36.929Z,6.90
2022-10-05T18:05:05.042Z,7.70
2022-10-05T18:07:34.709Z,9.00
2022-10-05T18:10:15.628Z,6.60
2022-10-05T18:12:46.865Z,7.90
2022-10-05T18:15:15.145Z,7.30
2022-10-05T18:17:55.266Z,7.50
2022-10-05T18:20:29.105Z,8.40
2022-10-05T18:23:05.536Z,8.70
2022-10-05T18:25:39.374Z,8.30
2022-10-05T18:28:09.081Z,13.00
2022-10-05T18:30:44.992Z,7.40
2022-10-05T18:33:43.656Z,11.80
2022-10-05T18:36:27.682Z,10.20
2022-10-05T18:38:55.966Z,9.40
2022-10-05T18:41:24.943Z,8.60
2022-10-05T18:43:55.576Z,7.60
2022-10-05T18:46:35.715Z,6.90
2022-10-05T18:49:04.312Z,8.00
2022-10-05T18:51:38.545Z,8.00
2022-10-05T18:54:26.173Z,8.70
2022-10-05T18:56:54.632Z,9.60
2022-10-05T18:59:43.363Z,8.00
2022-10-05T19:02:16.152Z,7.40
2022-10-05T19:04:53.865Z,10.00
2022-10-05T19:07:28.806Z,9.00
2022-10-05T19:10:12.698Z,8.10
2022-10-05T19:12:56.907Z,8.70
2022-10-05T19:15:48.010Z,10.10
2022-10-05T19:18:19.964Z,8.40
2022-10-05T19:21:06.979Z,9.40
2022-10-05T19:26:32.714Z,8.40
2022-10-05T19:31:36.174Z,9.80
2022-10-05T19:34:10.150Z,8.80
2022-10-05T19:36:46.600Z,9.70
2022-10-05T19:39:14.781Z,9.30
2022-10-05T19:42:01.378Z,15.60
2022-10-05T19:44:35.635Z,11.60
2022-10-05T19:47:17.511Z,13.90
2022-10-05T19:49:56.835Z,13.80
2022-10-05T19:52:29.527Z,15.10
2022-10-05T19:55:24.611Z,13.80
2022-10-05T19:57:54.317Z,10.90
2022-10-05T20:00:22.902Z,10.60
2022-10-05T20:02:51.654Z,11.90
2022-10-05T20:05:20.575Z,10.00
2022-10-05T20:07:48.440Z,11.60
2022-10-05T20:10:25.983Z,8.50
2022-10-05T20:12:57.706Z,11.10
2022-10-05T20:15:47.388Z,10.70
2022-10-05T20:19:12.961Z,15.00
2022-10-05T20:21:44.107Z,13.30
2022-10-05T20:24:15.596Z,10.90
2022-10-05T20:27:03.927Z,11.30
2022-10-05T20:29:36.917Z,9.50
2022-10-05T20:32:11.141Z,10.30
2022-10-05T20:34:41.656Z,11.70
2022-10-05T20:37:20.461Z,10.50
2022-10-05T20:39:50.962Z,10.10
2022-10-05T20:42:19.580Z,9.50
2022-10-05T20:44:55.822Z,10.40
2022-10-05T20:47:26.000Z,10.40
2022-10-05T20:49:56.132Z,12.80
2022-10-05T20:52:25.812Z,11.30
2022-10-05T20:54:56.949Z,10.00
2022-10-05T20:57:25.337Z,11.50
2022-10-05T20:59:53.462Z,10.20
2022-10-05T21:02:21.261Z,10.90
2022-10-05T21:04:49.533Z,11.60
2022-10-05T21:07:18.252Z,9.50
2022-10-05T21:09:46.911Z,9.30
2022-10-05T21:12:16.614Z,11.40
2022-10-05T21:14:45.503Z,10.40
2022-10-05T21:17:13.880Z,15.40
2022-10-05T21:19:42.057Z,11.00
2022-10-05T21:22:10.542Z,12.50
2022-10-05T21:24:39.269Z,12.70
2022-10-05T21:27:08.367Z,9.70
2022-10-05T21:29:39.560Z,9.70
2022-10-05T21:46:43.898Z,9.80
2022-10-05T21:49:14.175Z,10.50
2022-10-05T21:51:46.363Z,10.50
2022-10-05T21:54:16.384Z,12.90
2022-10-05T21:56:46.007Z,9.80
2022-10-05T21:59:15.236Z,11.90
2022-10-05T22:01:43.270Z,11.40
2022-10-05T22:04:12.253Z,11.80
2022-10-05T22:06:40.869Z,10.80
2022-10-05T22:09:09.117Z,10.80
2022-10-05T22:11:37.928Z,13.50
2022-10-05T22:14:06.795Z,8.90
2022-10-05T22:16:36.826Z,10.10
2022-10-05T22:19:06.319Z,10.00
2022-10-05T22:21:38.286Z,12.30
2022-10-05T22:24:06.246Z,11.60
2022-10-05T22:26:35.089Z,12.10
2022-10-05T22:29:03.623Z,11.10
2022-10-05T22:31:32.694Z,14.90
2022-10-05T22:34:00.578Z,10.90
2022-10-05T22:36:28.647Z,10.50
2022-10-05T22:38:56.826Z,13.50
2022-10-05T22:41:24.696Z,10.90
2022-10-05T22:43:52.961Z,10.70
2022-10-05T22:46:20.949Z,9.40
2022-10-05T22:48:48.674Z,10.60
2022-10-05T22:51:16.973Z,10.80
2022-10-05T22:53:44.733Z,11.20
2022-10-05T22:56:13.622Z,11.60
2022-10-05T22:58:42.315Z,12.30
2022-10-05T23:01:12.271Z,11.80
2022-10-05T23:03:40.715Z,11.00
2022-10-05T23:06:10.434Z,10.70
2022-10-05T23:08:38.999Z,10.30
2022-10-05T23:11:08.090Z,12.70
2022-10-05T23:13:36.162Z,10.80
2022-10-05T23:16:12.089Z,9.20
2022-10-05T23:18:40.699Z,15.80
2022-10-05T23:21:08.929Z,12.30
2022-10-05T23:23:37.865Z,11.00
2022-10-05T23:26:06.625Z,9.30
2022-10-05T23:28:34.683Z,9.10
2022-10-05T23:31:04.841Z,11.10
2022-10-05T23:33:33.411Z,11.40
2022-10-05T23:36:02.090Z,12.80
2022-10-05T23:38:30.235Z,10.10
2022-10-05T23:40:59.918Z,12.70
2022-10-05T23:43:28.246Z,10.10
2022-10-05T23:45:58.330Z,10.70
2022-10-05T23:48:27.003Z,11.40
2022-10-05T23:50:55.862Z,12.60
2022-10-05T23:53:24.239Z,10.20
2022-10-05T23:55:53.764Z,10.80
2022-10-05T23:58:22.352Z,11.30
